Аэропорт
Гонконг (VHHH)

 VHHH / HKG

Hong Kong
HK-U-A
Гонконг
 22.30890, 113.91500  / 28 ft

 VHHH 201730Z 10014KT CAVOK 18/12 Q1025 NOSIG
 TAF VHHH 201100Z 2012/2118 08010KT 9999 FEW035 TX23/2106Z TN16/2023Z TEMPO 2103/2109 27010KT

2020 © VATRUS division (Privacy Policy)